createdAt,value
2023-04-11T00:00:39.590Z,75.60
2023-04-11T00:03:25.355Z,76.00
2023-04-11T00:06:11.103Z,76.10
2023-04-11T00:08:57.005Z,76.20
2023-04-11T00:11:43.198Z,76.00
2023-04-11T00:14:32.208Z,76.00
2023-04-11T00:17:17.715Z,76.00
2023-04-11T00:20:08.008Z,76.00
2023-04-11T00:22:53.990Z,76.50
2023-04-11T00:25:39.197Z,76.60
2023-04-11T00:28:24.764Z,76.80
2023-04-11T00:31:11.112Z,76.80
2023-04-11T00:33:56.400Z,76.80
2023-04-11T00:36:42.050Z,77.60
2023-04-11T00:39:30.402Z,78.30
2023-04-11T00:42:16.410Z,78.60
2023-04-11T00:45:01.949Z,77.90
2023-04-11T00:47:47.424Z,78.30
2023-04-11T00:50:33.259Z,78.20
2023-04-11T00:53:18.806Z,78.90
2023-04-11T00:56:04.241Z,79.80
2023-04-11T00:58:49.566Z,80.00
2023-04-11T01:01:36.457Z,80.70
2023-04-11T01:04:22.120Z,81.90
2023-04-11T01:07:08.848Z,83.60
2023-04-11T01:09:54.472Z,85.00
2023-04-11T01:12:40.712Z,85.30
2023-04-11T01:15:26.124Z,85.50
2023-04-11T01:18:11.713Z,85.20
2023-04-11T01:20:57.563Z,86.10
2023-04-11T01:23:42.971Z,86.20
2023-04-11T01:26:28.415Z,86.40
2023-04-11T01:29:13.781Z,86.10
2023-04-11T01:31:59.276Z,86.40
2023-04-11T01:34:46.900Z,86.20
2023-04-11T01:37:32.258Z,87.40
2023-04-11T01:40:18.694Z,88.40
2023-04-11T01:43:03.972Z,87.40
2023-04-11T01:45:49.214Z,88.00
2023-04-11T01:48:34.892Z,89.00
2023-04-11T01:51:20.571Z,88.90
2023-04-11T01:54:06.107Z,89.80
2023-04-11T01:56:52.378Z,88.90
2023-04-11T01:59:38.000Z,89.20
2023-04-11T02:02:23.623Z,89.20
2023-04-11T02:05:09.099Z,89.30
2023-04-11T02:07:54.301Z,89.60
2023-04-11T02:10:39.751Z,90.10
2023-04-11T02:13:25.162Z,90.60
2023-04-11T02:16:14.942Z,90.70
2023-04-11T02:19:00.494Z,91.00
2023-04-11T02:21:46.432Z,91.30
2023-04-11T02:24:31.873Z,92.00
2023-04-11T02:27:17.287Z,92.00
2023-04-11T02:30:05.938Z,92.50
2023-04-11T02:32:51.789Z,92.40
2023-04-11T02:35:37.158Z,92.30
2023-04-11T02:38:22.589Z,93.10
2023-04-11T02:41:08.434Z,93.40
2023-04-11T02:43:54.342Z,93.60
2023-04-11T02:46:39.922Z,93.70
2023-04-11T02:49:25.298Z,93.90
2023-04-11T02:52:10.638Z,93.70
2023-04-11T02:54:55.899Z,94.10
2023-04-11T02:57:41.308Z,93.90
2023-04-11T03:00:27.004Z,93.70
2023-04-11T03:03:12.733Z,94.10
2023-04-11T03:05:58.381Z,94.20
2023-04-11T03:08:43.556Z,94.20
2023-04-11T03:11:28.842Z,94.70
2023-04-11T03:14:14.336Z,94.90
2023-04-11T03:16:59.496Z,94.90
2023-04-11T03:19:44.932Z,95.20
2023-04-11T03:22:34.344Z,94.90
2023-04-11T03:25:19.795Z,94.90
2023-04-11T03:28:05.501Z,95.30
2023-04-11T03:30:50.931Z,95.00
2023-04-11T03:33:36.439Z,95.10
2023-04-11T03:36:26.528Z,95.70
2023-04-11T03:39:11.765Z,95.50
2023-04-11T03:41:57.757Z,96.00
2023-04-11T03:44:43.143Z,96.50
2023-04-11T03:47:28.492Z,96.40
2023-04-11T03:50:13.924Z,96.60
2023-04-11T03:52:59.269Z,96.90
2023-04-11T03:55:44.628Z,96.90
2023-04-11T03:58:30.353Z,96.80
2023-04-11T04:01:15.858Z,96.90
2023-04-11T04:04:02.102Z,97.30
2023-04-11T04:06:47.481Z,97.90
2023-04-11T04:09:33.225Z,98.10
2023-04-11T04:12:19.309Z,98.60
2023-04-11T04:15:05.129Z,98.60
2023-04-11T04:17:51.123Z,99.20
2023-04-11T04:20:36.107Z,99.10
2023-04-11T04:23:21.406Z,99.60
2023-04-11T04:26:06.912Z,99.60
2023-04-11T04:28:54.051Z,99.80
2023-04-11T04:31:39.183Z,99.90
2023-04-11T04:34:24.537Z,99.90
2023-04-11T04:37:09.550Z,99.90
2023-04-11T04:39:57.585Z,99.90
2023-04-11T04:42:43.713Z,99.90
2023-04-11T04:45:28.890Z,99.90
2023-04-11T04:48:14.590Z,99.90
2023-04-11T04:50:59.658Z,99.90
2023-04-11T04:53:45.406Z,99.90
2023-04-11T04:56:30.841Z,99.90
2023-04-11T04:59:16.361Z,99.90
2023-04-11T05:02:01.535Z,99.90
2023-04-11T05:04:47.083Z,99.90
2023-04-11T05:07:32.211Z,99.20
2023-04-11T05:10:17.452Z,99.20
2023-04-11T05:13:02.917Z,99.50
2023-04-11T05:15:49.278Z,99.00
2023-04-11T05:18:34.232Z,99.10
2023-04-11T05:21:19.727Z,98.90
2023-04-11T05:24:05.606Z,99.00
2023-04-11T05:26:51.148Z,98.90
2023-04-11T05:29:36.449Z,98.90
2023-04-11T05:32:21.920Z,98.80
2023-04-11T05:35:07.813Z,99.10
2023-04-11T05:37:53.247Z,99.90
2023-04-11T05:40:38.700Z,99.90
2023-04-11T05:43:23.973Z,99.90
2023-04-11T05:46:09.493Z,99.90
2023-04-11T05:48:57.868Z,99.90
2023-04-11T05:51:43.204Z,99.90
2023-04-11T05:54:33.594Z,99.90
2023-04-11T05:57:18.728Z,99.90
2023-04-11T06:00:14.121Z,99.90
2023-04-11T06:03:01.809Z,99.90
2023-04-11T06:05:47.210Z,99.70
2023-04-11T06:08:32.637Z,99.90
2023-04-11T06:11:18.055Z,99.50
2023-04-11T06:14:03.587Z,99.00
2023-04-11T06:16:48.990Z,99.20
2023-04-11T06:19:34.350Z,99.00
2023-04-11T06:22:19.839Z,99.20
2023-04-11T06:25:05.513Z,99.00
2023-04-11T06:27:50.693Z,99.20
2023-04-11T06:30:36.237Z,99.10
2023-04-11T06:33:21.566Z,99.00
2023-04-11T06:36:07.388Z,98.70
2023-04-11T06:38:52.817Z,98.90
2023-04-11T06:41:37.950Z,98.90
2023-04-11T06:44:24.302Z,98.60
2023-04-11T06:47:09.744Z,98.60
2023-04-11T06:49:55.649Z,99.20
2023-04-11T06:52:41.318Z,99.20
2023-04-11T06:55:26.583Z,98.50
2023-04-11T06:58:12.583Z,99.00
2023-04-11T07:00:58.452Z,99.20
2023-04-11T07:03:43.746Z,98.90
2023-04-11T07:06:28.964Z,98.30
2023-04-11T07:09:14.673Z,98.80
2023-04-11T07:11:59.915Z,99.30
2023-04-11T07:14:45.185Z,98.80
2023-04-11T07:17:31.218Z,99.20
2023-04-11T07:20:16.719Z,99.50
2023-04-11T07:23:03.376Z,99.20
2023-04-11T07:25:49.090Z,99.40
2023-04-11T07:28:34.854Z,99.40
2023-04-11T07:31:21.498Z,99.20
2023-04-11T07:34:07.180Z,99.20
2023-04-11T07:36:52.321Z,99.30
2023-04-11T07:39:37.895Z,99.70
2023-04-11T07:42:23.093Z,99.70
2023-04-11T07:45:09.042Z,99.90
2023-04-11T07:47:54.360Z,99.90
2023-04-11T07:50:39.655Z,99.90
2023-04-11T07:53:25.261Z,99.90
2023-04-11T07:56:10.777Z,99.90
2023-04-11T07:58:58.032Z,99.90
2023-04-11T08:01:43.529Z,99.90
2023-04-11T08:04:33.628Z,99.90
2023-04-11T08:07:19.328Z,99.90
2023-04-11T08:10:05.748Z,99.90
2023-04-11T08:12:51.496Z,99.90
2023-04-11T08:15:38.777Z,99.90
2023-04-11T08:18:24.406Z,99.90
2023-04-11T08:21:13.629Z,99.90
2023-04-11T08:23:58.939Z,99.90
2023-04-11T08:26:44.492Z,99.90
2023-04-11T08:29:29.427Z,99.90
2023-04-11T08:32:14.736Z,99.90
2023-04-11T08:35:00.175Z,99.90
2023-04-11T08:37:45.550Z,99.90
2023-04-11T08:40:30.816Z,99.90
2023-04-11T08:43:16.481Z,99.90
2023-04-11T08:46:05.642Z,99.90
2023-04-11T08:48:51.366Z,99.90
2023-04-11T08:51:38.010Z,99.90
2023-04-11T08:54:23.402Z,99.90
2023-04-11T08:57:08.683Z,99.60
2023-04-11T09:00:00.642Z,99.70
2023-04-11T09:03:04.039Z,99.50
2023-04-11T09:05:50.057Z,98.30
2023-04-11T09:08:39.355Z,99.10
2023-04-11T09:11:25.969Z,98.20
2023-04-11T09:14:11.893Z,98.60
2023-04-11T09:17:13.366Z,97.10
2023-04-11T09:20:16.991Z,97.40
2023-04-11T09:23:02.579Z,96.50
2023-04-11T09:25:48.189Z,96.80
2023-04-11T09:28:54.204Z,95.80
2023-04-11T09:31:44.885Z,95.50
2023-04-11T09:34:30.410Z,94.70
2023-04-11T09:37:16.545Z,95.40
2023-04-11T09:40:01.747Z,95.60
2023-04-11T09:42:49.678Z,94.80
2023-04-11T09:45:44.207Z,93.40
2023-04-11T09:48:46.443Z,93.20
2023-04-11T09:51:36.829Z,92.60
2023-04-11T09:54:22.678Z,92.00
2023-04-11T09:57:08.536Z,93.10
2023-04-11T09:59:55.422Z,92.70
2023-04-11T10:02:41.836Z,90.70
2023-04-11T10:05:29.290Z,90.20
2023-04-11T10:08:22.460Z,90.30
2023-04-11T10:11:10.246Z,89.30
2023-04-11T10:13:57.639Z,90.00
2023-04-11T10:17:19.826Z,90.20
2023-04-11T10:20:36.334Z,90.00
2023-04-11T10:23:21.791Z,88.50
2023-04-11T10:26:09.004Z,89.50
2023-04-11T10:28:54.157Z,88.70
2023-04-11T10:32:11.667Z,85.10
2023-04-11T10:34:57.657Z,84.90
2023-04-11T10:37:42.935Z,83.90
2023-04-11T10:40:28.314Z,80.90
2023-04-11T10:43:21.316Z,81.30
2023-04-11T10:46:20.416Z,82.60
2023-04-11T10:49:05.830Z,82.00
2023-04-11T10:51:52.165Z,82.30
2023-04-11T10:54:37.267Z,82.60
2023-04-11T10:57:23.003Z,82.00
2023-04-11T11:00:14.139Z,87.40
2023-04-11T11:03:01.412Z,90.40
2023-04-11T11:06:01.108Z,91.50
2023-04-11T11:08:46.929Z,92.50
2023-04-11T11:11:32.017Z,92.70
2023-04-11T11:14:30.040Z,93.20
2023-04-11T11:17:17.264Z,93.50
2023-04-11T11:20:10.265Z,92.20
2023-04-11T11:23:05.018Z,91.50
2023-04-11T11:25:55.498Z,91.10
2023-04-11T11:28:48.204Z,91.00
2023-04-11T11:31:41.967Z,91.30
2023-04-11T11:34:31.659Z,90.80
2023-04-11T11:37:16.876Z,89.70
2023-04-11T11:40:05.699Z,87.80
2023-04-11T11:42:51.879Z,86.10
2023-04-11T11:45:37.237Z,83.00
2023-04-11T11:48:24.187Z,82.80
2023-04-11T11:51:09.643Z,83.50
2023-04-11T11:54:05.614Z,84.80
2023-04-11T11:56:54.915Z,86.10
2023-04-11T11:59:40.068Z,88.70
2023-04-11T12:02:26.705Z,89.40
2023-04-11T12:05:12.619Z,90.60
2023-04-11T12:07:59.867Z,91.50
2023-04-11T12:10:50.108Z,92.10
2023-04-11T12:13:36.406Z,93.40
2023-04-11T12:16:22.445Z,93.70
2023-04-11T12:19:08.945Z,93.50
2023-04-11T12:21:54.199Z,93.90
2023-04-11T12:24:39.459Z,93.60
2023-04-11T12:27:24.933Z,93.60
2023-04-11T12:30:12.016Z,93.40
2023-04-11T12:32:57.020Z,93.20
2023-04-11T12:35:42.348Z,93.40
2023-04-11T12:38:27.725Z,94.30
2023-04-11T12:41:30.977Z,94.40
2023-04-11T12:44:17.204Z,93.70
2023-04-11T12:47:02.620Z,94.00
2023-04-11T12:49:47.959Z,92.80
2023-04-11T12:52:34.415Z,92.90
2023-04-11T12:55:19.745Z,92.80
2023-04-11T12:58:05.098Z,92.30
2023-04-11T13:00:50.779Z,92.60
2023-04-11T13:03:35.983Z,92.80
2023-04-11T13:06:21.033Z,93.50
2023-04-11T13:09:07.782Z,91.20
2023-04-11T13:11:53.569Z,92.50
2023-04-11T13:14:38.761Z,92.00
2023-04-11T13:17:24.258Z,90.40
2023-04-11T13:20:11.054Z,93.00
2023-04-11T13:22:56.575Z,87.40
2023-04-11T13:25:41.998Z,90.70
2023-04-11T13:28:27.916Z,90.80
2023-04-11T13:31:14.167Z,89.90
2023-04-11T13:34:00.432Z,89.60
2023-04-11T13:36:46.302Z,90.70
2023-04-11T13:39:31.878Z,87.20
2023-04-11T13:42:17.150Z,88.80
2023-04-11T13:45:02.475Z,90.10
2023-04-11T13:47:48.018Z,89.20
2023-04-11T13:50:34.489Z,90.10
2023-04-11T13:53:19.855Z,89.70
2023-04-11T13:56:06.599Z,89.30
2023-04-11T13:58:51.856Z,85.10
2023-04-11T14:01:36.933Z,86.60
2023-04-11T14:04:22.629Z,89.60
2023-04-11T14:07:08.224Z,90.20
2023-04-11T14:09:53.516Z,92.00
2023-04-11T14:12:39.130Z,92.40
2023-04-11T14:15:24.301Z,93.30
2023-04-11T14:18:09.667Z,93.00
2023-04-11T14:20:58.187Z,92.50
2023-04-11T14:23:43.742Z,92.00
2023-04-11T14:26:29.173Z,90.80
2023-04-11T14:29:14.486Z,90.90
2023-04-11T14:32:00.044Z,89.80
2023-04-11T14:34:46.314Z,90.10
2023-04-11T14:37:34.733Z,88.40
2023-04-11T14:40:19.970Z,87.80
2023-04-11T14:43:06.424Z,88.70
2023-04-11T14:45:55.984Z,88.50
2023-04-11T14:48:41.170Z,88.00
2023-04-11T14:51:28.246Z,89.10
2023-04-11T14:54:13.434Z,86.50
2023-04-11T14:56:59.588Z,86.00
2023-04-11T14:59:44.671Z,86.60
2023-04-11T15:02:31.265Z,85.40
2023-04-11T15:05:17.913Z,86.00
2023-04-11T15:08:03.487Z,83.20
2023-04-11T15:10:53.853Z,84.30
2023-04-11T15:13:39.115Z,83.30
2023-04-11T15:16:24.675Z,82.50
2023-04-11T15:19:10.175Z,84.70
2023-04-11T15:21:55.559Z,84.00
2023-04-11T15:24:42.113Z,84.00
2023-04-11T15:27:27.508Z,84.50
2023-04-11T15:30:13.609Z,85.10
2023-04-11T15:32:59.063Z,85.60
2023-04-11T15:35:45.789Z,85.30
2023-04-11T15:38:31.279Z,83.30
2023-04-11T15:41:16.438Z,84.60
2023-04-11T15:44:02.054Z,82.60
2023-04-11T15:46:49.458Z,81.60
2023-04-11T15:49:34.741Z,80.10
2023-04-11T15:52:21.280Z,81.00
2023-04-11T15:55:07.480Z,77.70
2023-04-11T15:57:52.862Z,79.10
2023-04-11T16:00:39.844Z,80.10
2023-04-11T16:03:31.396Z,78.30
2023-04-11T16:06:18.187Z,76.20
2023-04-11T16:09:04.247Z,76.00
2023-04-11T16:11:49.757Z,73.80
2023-04-11T16:14:34.956Z,75.50
2023-04-11T16:17:20.530Z,74.40
2023-04-11T16:20:09.279Z,75.30
2023-04-11T16:22:56.321Z,74.30
2023-04-11T16:25:41.795Z,75.90
2023-04-11T16:28:27.061Z,75.50
2023-04-11T16:31:15.163Z,76.30
2023-04-11T16:34:00.398Z,75.70
2023-04-11T16:36:45.909Z,74.60
2023-04-11T16:39:31.579Z,74.50
2023-04-11T16:42:17.660Z,75.60
2023-04-11T16:45:03.335Z,75.40
2023-04-11T16:47:48.674Z,74.30
2023-04-11T16:50:34.181Z,75.60
2023-04-11T16:53:19.884Z,75.30
2023-04-11T16:56:05.898Z,76.10
2023-04-11T16:58:51.144Z,77.10
2023-04-11T17:01:36.498Z,77.00
2023-04-11T17:04:21.978Z,75.60
2023-04-11T17:07:07.910Z,75.90
2023-04-11T17:09:53.574Z,75.80
2023-04-11T17:12:39.064Z,76.40
2023-04-11T17:15:24.481Z,75.80
2023-04-11T17:18:09.871Z,76.20
2023-04-11T17:20:55.700Z,76.10
2023-04-11T17:23:43.517Z,76.40
2023-04-11T17:26:29.269Z,76.80
2023-04-11T17:29:14.707Z,78.10
2023-04-11T17:32:00.024Z,78.60
2023-04-11T17:34:45.244Z,78.70
2023-04-11T17:37:30.738Z,79.40
2023-04-11T17:40:18.789Z,79.50
2023-04-11T17:43:04.152Z,82.60
2023-04-11T17:45:50.613Z,82.10
2023-04-11T17:48:36.102Z,80.30
2023-04-11T17:51:24.496Z,80.00
2023-04-11T17:54:09.627Z,80.40
2023-04-11T17:56:56.485Z,79.80
2023-04-11T17:59:42.047Z,79.40
2023-04-11T18:02:29.307Z,79.70
2023-04-11T18:05:23.766Z,79.40
2023-04-11T18:08:09.955Z,79.10
2023-04-11T18:10:55.709Z,78.90
2023-04-11T18:13:43.776Z,78.70
2023-04-11T18:16:28.983Z,79.30
2023-04-11T18:19:14.675Z,78.60
2023-04-11T18:21:59.859Z,78.70
2023-04-11T18:24:45.103Z,78.80
2023-04-11T18:27:32.612Z,79.50
2023-04-11T18:30:18.005Z,80.20
2023-04-11T18:33:04.319Z,80.90
2023-04-11T18:35:49.515Z,81.40
2023-04-11T18:38:34.750Z,81.80
2023-04-11T18:41:20.746Z,82.40
2023-04-11T18:44:08.341Z,83.30
2023-04-11T18:46:56.600Z,83.10
2023-04-11T18:49:43.218Z,83.00
2023-04-11T18:52:29.354Z,82.90
2023-04-11T18:55:14.803Z,82.70
2023-04-11T18:58:00.966Z,83.50
2023-04-11T19:00:48.913Z,83.60
2023-04-11T19:03:34.727Z,83.80
2023-04-11T19:06:20.282Z,84.50
2023-04-11T19:09:06.181Z,84.10
2023-04-11T19:11:51.607Z,84.40
2023-04-11T19:14:37.513Z,84.70
2023-04-11T19:17:22.771Z,84.60
2023-04-11T19:20:12.692Z,84.60
2023-04-11T19:22:58.476Z,84.40
2023-04-11T19:25:43.956Z,84.30
2023-04-11T19:28:29.374Z,84.20
2023-04-11T19:31:14.891Z,85.10
2023-04-11T19:34:00.538Z,83.70
2023-04-11T19:36:45.879Z,84.20
2023-04-11T19:39:37.301Z,84.20
2023-04-11T19:42:22.487Z,84.40
2023-04-11T19:45:11.446Z,84.40
2023-04-11T19:47:57.015Z,84.70
2023-04-11T19:50:42.264Z,84.80
2023-04-11T19:53:27.938Z,84.20
2023-04-11T19:56:14.949Z,84.00
2023-04-11T19:59:01.205Z,84.30
2023-04-11T20:01:46.744Z,83.60
2023-04-11T20:04:32.154Z,84.00
2023-04-11T20:07:17.610Z,84.00
2023-04-11T20:10:03.915Z,83.90
2023-04-11T20:12:49.243Z,84.50
2023-04-11T20:15:34.765Z,83.50
2023-04-11T20:18:20.162Z,83.70
2023-04-11T20:21:07.632Z,84.40
2023-04-11T20:23:53.641Z,84.20
2023-04-11T20:26:38.778Z,84.30
2023-04-11T20:32:16.061Z,84.60
2023-04-11T20:35:01.649Z,84.30
2023-04-11T20:37:47.803Z,85.00
2023-04-11T20:40:32.993Z,84.80
2023-04-11T20:43:18.333Z,85.10
2023-04-11T20:46:08.221Z,84.80
2023-04-11T20:48:54.626Z,85.20
2023-04-11T20:51:39.957Z,85.50
2023-04-11T20:54:26.312Z,85.70
2023-04-11T20:57:11.454Z,85.90
2023-04-11T20:59:57.585Z,85.70
2023-04-11T21:02:45.660Z,86.20
2023-04-11T21:05:31.009Z,86.10
2023-04-11T21:08:16.384Z,86.30
2023-04-11T21:11:08.361Z,86.50
2023-04-11T21:13:54.700Z,86.30
2023-04-11T21:16:40.162Z,86.20
2023-04-11T21:19:25.656Z,86.60
2023-04-11T21:22:12.128Z,86.40
2023-04-11T21:24:57.652Z,86.50
2023-04-11T21:27:43.515Z,86.60
2023-04-11T21:30:28.442Z,86.50
2023-04-11T21:33:13.977Z,86.80
2023-04-11T21:35:59.378Z,86.80
2023-04-11T21:38:44.733Z,87.00
2023-04-11T21:41:30.008Z,86.70
2023-04-11T21:44:15.557Z,87.00
2023-04-11T21:47:00.623Z,87.60
2023-04-11T21:49:49.188Z,87.30
2023-04-11T21:52:34.358Z,87.20
2023-04-11T21:55:19.913Z,87.40
2023-04-11T21:58:05.464Z,87.40
2023-04-11T22:00:50.655Z,87.60
2023-04-11T22:03:40.087Z,86.90
2023-04-11T22:06:26.619Z,87.40
2023-04-11T22:09:14.995Z,87.70
2023-04-11T22:12:00.364Z,88.20
2023-04-11T22:14:45.839Z,87.30
2023-04-11T22:17:32.330Z,87.10
2023-04-11T22:20:18.300Z,86.60
2023-04-11T22:23:06.108Z,87.80
2023-04-11T22:25:57.648Z,88.10
2023-04-11T22:28:43.227Z,88.10
2023-04-11T22:31:34.341Z,87.80
2023-04-11T22:34:19.553Z,87.40
2023-04-11T22:37:05.058Z,87.60
2023-04-11T22:39:50.401Z,86.90
2023-04-11T22:42:35.711Z,87.20
2023-04-11T22:45:22.529Z,87.90
2023-04-11T22:48:07.813Z,87.20
2023-04-11T22:50:55.471Z,87.50
2023-04-11T22:53:42.123Z,88.20
2023-04-11T22:56:27.162Z,88.00
2023-04-11T22:59:12.933Z,88.20
2023-04-11T23:01:58.528Z,88.20
2023-04-11T23:04:44.519Z,88.70
2023-04-11T23:07:33.010Z,88.50
2023-04-11T23:10:19.173Z,88.30
2023-04-11T23:13:04.302Z,88.80
2023-04-11T23:15:49.634Z,88.90
2023-04-11T23:18:35.375Z,88.80
2023-04-11T23:21:20.466Z,88.90
2023-04-11T23:24:09.094Z,88.90
2023-04-11T23:26:54.527Z,89.10
2023-04-11T23:29:39.871Z,89.20
2023-04-11T23:32:25.267Z,89.30
2023-04-11T23:35:10.866Z,88.90
2023-04-11T23:37:56.389Z,89.70
2023-04-11T23:40:41.607Z,89.70
2023-04-11T23:43:27.089Z,89.30
2023-04-11T23:46:13.377Z,89.20
2023-04-11T23:48:59.029Z,89.50
2023-04-11T23:51:44.610Z,89.50
2023-04-11T23:54:30.460Z,89.90
2023-04-11T23:57:16.167Z,90.00
